Time;durP1;ratioP1;P1;durP2;ratioP2;P2;SDS_P1;SDS_P2;PMS_P1;PMS_P2;Temp;Humidity;BMP_temperature;BMP_pressure;BME280_temperature;BME280_humidity;BME280_pressure;Samples;Min_cycle;Max_cycle;Signal;HPM_P1;HPM_P2
2021/04/16 00:00:44;;;;;;;5.43;3.72;;;;;;;-1.14;67.79;96110.69;4991018;28;20049;-72
2021/04/16 00:03:12;;;;;;;8.38;4.18;;;;;;;-1.16;70.48;96107.50;4987671;28;20435;-72
2021/04/16 00:05:38;;;;;;;7.82;3.78;;;;;;;-1.14;68.43;96105.50;4985423;28;20089;-73
2021/04/16 00:08:06;;;;;;;7.00;4.00;;;;;;;-1.12;70.64;96103.53;4987800;28;20411;-73
2021/04/16 00:10:38;;;;;;;6.18;3.78;;;;;;;-1.29;69.18;96098.59;4990812;28;20041;-73
2021/04/16 00:13:04;;;;;;;6.22;3.95;;;;;;;-1.26;68.81;96098.22;4991819;28;20064;-72
2021/04/16 00:15:33;;;;;;;6.45;3.63;;;;;;;-1.06;68.73;96102.84;4989944;28;20050;-72
2021/04/16 00:17:59;;;;;;;6.80;4.10;;;;;;;-1.06;69.70;96093.28;4990866;28;20425;-72
2021/04/16 00:20:27;;;;;;;5.80;3.72;;;;;;;-1.25;70.89;96093.84;4989775;28;20500;-72
2021/04/16 00:22:53;;;;;;;5.72;3.88;;;;;;;-1.13;70.17;96091.63;4991164;28;20041;-73
2021/04/16 00:25:25;;;;;;;6.55;3.90;;;;;;;-1.10;71.19;96086.88;4989642;28;20047;-73
2021/04/16 00:27:51;;;;;;;6.30;3.88;;;;;;;-1.14;69.33;96090.00;4991099;28;20038;-73
2021/04/16 00:30:29;;;;;;;6.40;3.97;;;;;;;-1.22;71.38;96089.13;4990990;28;20042;-73
2021/04/16 00:32:54;;;;;;;7.10;3.90;;;;;;;-1.03;70.59;96088.72;4980076;28;20038;-73
2021/04/16 00:35:20;;;;;;;9.90;4.78;;;;;;;-1.16;72.46;96084.25;4990858;28;20050;-73
2021/04/16 00:37:46;;;;;;;6.22;4.03;;;;;;;-1.08;71.65;96079.78;4988693;28;20050;-73
2021/04/16 00:40:15;;;;;;;6.95;3.72;;;;;;;-1.11;71.61;96084.47;4991112;28;20463;-72
2021/04/16 00:42:41;;;;;;;6.63;3.67;;;;;;;-1.15;70.40;96078.06;4989905;28;20110;-72
2021/04/16 00:45:08;;;;;;;6.15;3.92;;;;;;;-1.32;69.62;96078.28;4990455;28;20040;-73
2021/04/16 00:47:34;;;;;;;6.00;4.15;;;;;;;-1.28;69.78;96073.56;4989031;28;20177;-73
2021/04/16 00:50:12;;;;;;;6.40;4.18;;;;;;;-1.27;72.47;96075.16;4990758;28;20038;-73
2021/04/16 00:52:37;;;;;;;6.57;3.83;;;;;;;-1.39;71.71;96069.66;4987622;28;20126;-73
2021/04/16 00:55:06;;;;;;;6.47;3.70;;;;;;;-1.40;70.94;96075.81;4990024;28;20069;-73
2021/04/16 00:57:32;;;;;;;6.00;4.22;;;;;;;-1.39;73.11;96074.84;4982319;28;20110;-73
2021/04/16 00:59:58;;;;;;;6.32;4.10;;;;;;;-1.62;74.28;96073.16;4989235;28;20059;-73
2021/04/16 01:02:24;;;;;;;7.32;4.38;;;;;;;-1.55;73.79;96067.25;4989906;28;20113;-73
2021/04/16 01:04:51;;;;;;;6.05;3.83;;;;;;;-1.40;73.16;96076.59;4988269;28;20034;-73
2021/04/16 01:07:18;;;;;;;5.47;3.42;;;;;;;-1.44;70.86;96071.97;4987324;28;20085;-73
2021/04/16 01:09:45;;;;;;;7.05;4.03;;;;;;;-1.53;71.07;96065.31;4989198;28;20038;-73
2021/04/16 01:12:13;;;;;;;11.02;4.40;;;;;;;-1.50;73.41;96064.94;4990510;28;20082;-73
2021/04/16 01:14:41;;;;;;;6.43;4.35;;;;;;;-1.51;74.14;96058.19;4990052;28;20038;-73
2021/04/16 01:17:10;;;;;;;7.70;4.47;;;;;;;-1.59;73.91;96067.63;4986956;28;20042;-73
2021/04/16 01:19:41;;;;;;;6.88;4.60;;;;;;;-1.56;73.51;96056.16;4990938;28;20042;-72
2021/04/16 01:22:14;;;;;;;5.97;4.10;;;;;;;-1.53;72.78;96060.16;4988984;28;20053;-73
2021/04/16 01:24:40;;;;;;;7.95;4.30;;;;;;;-1.46;72.80;96061.03;4985147;28;20031;-73
2021/04/16 01:27:12;;;;;;;7.60;4.20;;;;;;;-1.39;72.40;96067.09;4988034;28;20064;-72
2021/04/16 01:29:46;;;;;;;6.32;4.07;;;;;;;-1.46;73.42;96061.03;4990737;28;20050;-73
2021/04/16 01:32:26;;;;;;;6.32;4.65;;;;;;;-1.50;72.86;96064.94;4988795;28;20047;-73
2021/04/16 01:34:52;;;;;;;9.88;4.78;;;;;;;-1.48;73.42;96052.66;4990934;28;20041;-73
2021/04/16 01:37:18;;;;;;;6.65;4.18;;;;;;;-1.62;72.41;96046.53;4991402;28;20416;-73
2021/04/16 01:39:43;;;;;;;8.57;5.07;;;;;;;-1.66;72.90;96056.41;4993667;28;20511;-73
2021/04/16 01:42:09;;;;;;;6.47;4.30;;;;;;;-1.53;73.07;96050.63;4993248;28;20046;-72
2021/04/16 01:44:35;;;;;;;5.50;4.00;;;;;;;-1.65;71.80;96047.69;4990538;28;20513;-73
2021/04/16 01:47:07;;;;;;;8.63;4.65;;;;;;;-1.46;72.92;96046.34;4990328;28;20042;-72
2021/04/16 01:49:48;;;;;;;6.72;4.18;;;;;;;-1.51;72.29;96048.66;4992013;28;20054;-73
2021/04/16 01:52:18;;;;;;;7.63;4.75;;;;;;;-1.54;73.30;96040.47;4992866;28;20046;-73
2021/04/16 01:54:51;;;;;;;6.70;4.45;;;;;;;-1.45;71.65;96045.38;4990930;28;20039;-73
2021/04/16 01:57:20;;;;;;;8.82;4.55;;;;;;;-1.41;72.50;96045.78;4992079;28;20077;-72
2021/04/16 01:59:47;;;;;;;6.82;4.82;;;;;;;-1.39;73.32;96043.84;4992156;28;20544;-73
2021/04/16 02:02:19;;;;;;;9.15;4.95;;;;;;;-1.40;72.89;96044.81;4992990;28;20538;-73
2021/04/16 02:04:45;;;;;;;8.82;4.90;;;;;;;-1.57;72.12;96039.88;4986168;28;20034;-73
2021/04/16 02:07:11;;;;;;;8.23;4.60;;;;;;;-1.51;71.91;96040.13;4989810;28;20047;-73
2021/04/16 02:09:38;;;;;;;7.25;4.53;;;;;;;-1.47;72.17;96033.63;4991465;28;20470;-73
2021/04/16 02:12:06;;;;;;;7.20;4.43;;;;;;;-1.66;71.86;96040.94;4992374;28;20527;-73
2021/04/16 02:14:31;;;;;;;9.63;4.30;;;;;;;-1.68;72.08;96037.75;4991602;28;20053;-73
2021/04/16 02:17:12;;;;;;;7.07;4.53;;;;;;;-1.84;72.05;96032.75;4990700;28;20408;-73
2021/04/16 02:19:38;;;;;;;6.68;4.28;;;;;;;-1.82;73.28;96041.91;4991210;28;20474;-73
2021/04/16 02:22:06;;;;;;;6.75;4.13;;;;;;;-1.80;72.69;96042.53;4992132;28;20094;-73
2021/04/16 02:24:32;;;;;;;8.10;4.38;;;;;;;-1.86;72.54;96035.50;4992326;28;20042;-73
2021/04/16 02:26:57;;;;;;;7.03;4.47;;;;;;;-1.87;72.44;96038.25;4991082;28;20038;-73
2021/04/16 02:29:24;;;;;;;7.28;4.75;;;;;;;-1.84;72.69;96037.91;4988495;28;20052;-73
2021/04/16 02:31:50;;;;;;;8.43;4.90;;;;;;;-1.95;72.58;96036.59;4991537;28;20046;-73
2021/04/16 02:34:21;;;;;;;7.32;4.57;;;;;;;-2.12;73.24;96030.78;4992278;28;20039;-73
2021/04/16 02:36:47;;;;;;;7.65;4.65;;;;;;;-2.12;73.73;96030.78;4986029;28;20042;-73
2021/04/16 02:39:14;;;;;;;8.27;4.45;;;;;;;-2.05;73.35;96026.53;4972101;28;602241;-73
2021/04/16 02:41:40;;;;;;;8.43;4.97;;;;;;;-2.14;72.85;96027.56;4992115;28;20410;-73
2021/04/16 02:44:05;;;;;;;7.32;4.22;;;;;;;-2.17;73.53;96026.16;4993137;28;20042;-73
2021/04/16 02:46:32;;;;;;;9.15;4.53;;;;;;;-2.39;74.02;96027.78;4986863;28;20388;-73
2021/04/16 02:48:58;;;;;;;9.07;4.50;;;;;;;-2.24;73.52;96021.88;4993121;28;20049;-73
2021/04/16 02:51:24;;;;;;;9.18;4.07;;;;;;;-2.40;73.54;96023.63;4992205;28;20038;-73
2021/04/16 02:53:49;;;;;;;8.02;4.13;;;;;;;-2.50;74.03;96023.06;4991106;28;20057;-73
2021/04/16 02:56:15;;;;;;;7.30;4.63;;;;;;;-2.51;74.40;96021.47;4985358;28;20041;-73
2021/04/16 02:58:40;;;;;;;6.25;4.00;;;;;;;-2.36;73.59;96024.88;4992167;28;20050;-73
2021/04/16 03:01:06;;;;;;;6.72;4.00;;;;;;;-2.45;73.94;96020.78;4992560;28;20050;-73
2021/04/16 03:03:32;;;;;;;7.38;4.28;;;;;;;-2.32;73.70;96020.97;4991890;28;20048;-73
2021/04/16 03:05:57;;;;;;;7.40;4.43;;;;;;;-2.55;74.34;96015.84;4991765;28;20038;-73
2021/04/16 03:08:23;;;;;;;7.95;4.32;;;;;;;-2.61;74.46;96019.94;4989376;28;20564;-73
2021/04/16 03:10:49;;;;;;;6.68;4.40;;;;;;;-2.38;74.46;96021.69;4992277;28;20496;-74
2021/04/16 03:13:16;;;;;;;7.95;4.57;;;;;;;-2.42;73.87;96020.41;4990525;28;20092;-73
2021/04/16 03:15:41;;;;;;;9.52;4.93;;;;;;;-2.52;73.74;96012.94;4991967;28;20446;-73
2021/04/16 03:18:08;;;;;;;6.55;4.25;;;;;;;-2.53;74.15;96013.09;4984597;28;20046;-73
2021/04/16 03:20:34;;;;;;;8.48;4.32;;;;;;;-2.39;73.67;96009.75;4991700;28;20121;-73
2021/04/16 03:22:59;;;;;;;8.85;4.43;;;;;;;-2.39;73.43;96014.91;4992292;28;20065;-73
2021/04/16 03:25:25;;;;;;;9.75;5.13;;;;;;;-2.75;74.54;96018.13;4990727;28;20053;-73
2021/04/16 03:27:50;;;;;;;10.20;4.65;;;;;;;-2.73;74.60;96013.59;4992388;28;20030;-73
2021/04/16 03:30:19;;;;;;;9.38;4.28;;;;;;;-2.76;74.61;96018.28;4990167;28;20116;-74
2021/04/16 03:32:45;;;;;;;7.22;4.53;;;;;;;-2.66;74.14;96014.50;4992439;28;20057;-74
2021/04/16 03:35:12;;;;;;;6.57;4.35;;;;;;;-2.73;74.36;96018.75;4986297;28;20496;-73
2021/04/16 03:37:38;;;;;;;7.05;4.53;;;;;;;-2.81;74.88;96011.88;4989968;28;20065;-74
2021/04/16 03:40:05;;;;;;;8.50;4.82;;;;;;;-2.94;75.09;96013.41;4991445;28;20039;-73
2021/04/16 03:42:30;;;;;;;9.95;4.80;;;;;;;-2.91;75.08;96015.66;4984889;28;20038;-74
2021/04/16 03:44:56;;;;;;;8.95;4.50;;;;;;;-2.79;74.97;96003.97;4987635;28;20045;-74
2021/04/16 03:47:22;;;;;;;10.52;4.38;;;;;;;-2.87;74.42;96011.78;4991763;28;20046;-73
2021/04/16 03:49:47;;;;;;;7.53;4.28;;;;;;;-2.81;74.18;96005.94;4991451;28;20073;-73
2021/04/16 03:52:13;;;;;;;7.93;4.50;;;;;;;-2.84;74.91;96019.16;4990869;28;20089;-72
2021/04/16 03:54:39;;;;;;;8.70;4.70;;;;;;;-2.92;74.79;96017.44;4991046;28;20038;-73
2021/04/16 03:57:08;;;;;;;7.50;4.45;;;;;;;-3.03;74.86;96018.63;4990469;28;20042;-72
2021/04/16 03:59:34;;;;;;;10.48;4.45;;;;;;;-3.07;75.10;96019.94;4990823;28;20045;-72
2021/04/16 04:01:59;;;;;;;8.00;4.28;;;;;;;-3.04;75.35;96022.19;4991414;28;20038;-73
2021/04/16 04:04:25;;;;;;;8.93;4.65;;;;;;;-3.03;74.88;96023.78;4986108;28;20043;-72
2021/04/16 04:06:51;;;;;;;8.48;4.68;;;;;;;-3.05;75.33;96020.56;4988677;28;20042;-73
2021/04/16 04:09:18;;;;;;;9.50;5.00;;;;;;;-3.05;75.17;96025.72;4991085;28;20500;-72
2021/04/16 04:11:43;;;;;;;10.57;5.47;;;;;;;-3.14;75.26;96021.59;4988606;28;20447;-73
2021/04/16 04:14:09;;;;;;;10.98;5.05;;;;;;;-3.13;75.58;96023.22;4991194;28;20038;-73
2021/04/16 04:17:07;;;;;;;13.45;4.90;;;;;;;-3.38;76.38;96033.63;4989565;28;20101;-73
2021/04/16 04:19:34;;;;;;;11.02;5.10;;;;;;;-3.16;75.68;96029.50;4956603;28;20062;-72
2021/04/16 04:22:02;;;;;;;9.32;5.25;;;;;;;-3.23;75.65;96027.75;4990947;28;20415;-72
2021/04/16 04:24:27;;;;;;;7.82;4.75;;;;;;;-3.03;74.96;96028.94;4983633;28;20043;-72
2021/04/16 04:26:54;;;;;;;9.93;4.80;;;;;;;-3.14;75.01;96031.91;4991093;28;20049;-72
2021/04/16 04:29:22;;;;;;;9.15;5.43;;;;;;;-3.12;74.97;96032.53;5006458;28;20121;-73
2021/04/16 04:31:49;;;;;;;8.43;5.07;;;;;;;-3.20;75.55;96032.59;4991104;28;20543;-72
2021/04/16 04:34:37;;;;;;;10.88;5.15;;;;;;;-3.33;75.54;96044.22;4991513;28;20034;-73
2021/04/16 04:37:05;;;;;;;14.63;4.97;;;;;;;-3.38;76.17;96046.50;4990471;28;20499;-72
2021/04/16 04:39:34;;;;;;;12.57;5.75;;;;;;;-3.28;75.76;96041.13;4990869;28;20122;-73
2021/04/16 04:42:02;;;;;;;12.60;5.07;;;;;;;-3.18;75.92;96035.78;4990577;28;20072;-72
2021/04/16 04:44:28;;;;;;;9.23;5.07;;;;;;;-3.35;75.79;96038.47;4990156;28;20046;-74
2021/04/16 04:46:53;;;;;;;10.32;5.13;;;;;;;-3.26;75.61;96038.41;4988714;28;20579;-74
2021/04/16 04:49:22;;;;;;;6.97;4.50;;;;;;;-3.24;76.44;96041.63;4990639;28;20039;-74
2021/04/16 04:51:50;;;;;;;8.35;4.95;;;;;;;-3.29;75.60;96038.75;4988968;28;20042;-74
2021/04/16 04:54:17;;;;;;;9.80;5.30;;;;;;;-3.31;75.95;96037.13;4990970;28;20114;-74
2021/04/16 04:56:43;;;;;;;7.57;4.55;;;;;;;-3.25;76.16;96047.72;4983688;28;20183;-74
2021/04/16 04:59:08;;;;;;;9.23;5.15;;;;;;;-3.23;76.06;96048.34;4990620;28;20038;-74
2021/04/16 05:01:34;;;;;;;9.73;4.85;;;;;;;-3.16;75.56;96033.81;4990268;28;20426;-74
2021/04/16 05:04:00;;;;;;;14.10;5.43;;;;;;;-3.16;75.71;96038.97;4984703;28;20041;-74
2021/04/16 05:06:26;;;;;;;10.73;5.30;;;;;;;-3.39;77.24;96049.25;4984944;28;20042;-74
2021/04/16 05:08:52;;;;;;;11.57;5.38;;;;;;;-3.45;77.24;96045.56;4988697;28;20042;-74
2021/04/16 05:11:18;;;;;;;15.50;5.80;;;;;;;-3.32;77.65;96050.16;4989911;28;20046;-75
2021/04/16 05:13:43;;;;;;;13.57;5.88;;;;;;;-3.23;77.45;96053.50;4988889;28;20048;-74
2021/04/16 05:16:09;;;;;;;16.85;5.80;;;;;;;-3.12;77.01;96047.97;4987892;28;20043;-74
2021/04/16 05:18:38;;;;;;;13.20;6.20;;;;;;;-3.18;77.27;96051.22;4990914;28;20042;-74
2021/04/16 05:21:05;;;;;;;10.95;6.20;;;;;;;-3.22;77.48;96055.13;4989752;28;20046;-74
2021/04/16 05:23:31;;;;;;;13.65;6.35;;;;;;;-3.23;77.83;96043.19;4985042;28;20053;-75
2021/04/16 05:25:57;;;;;;;9.90;5.75;;;;;;;-3.10;77.93;96038.31;4988094;28;20042;-74
2021/04/16 05:28:22;;;;;;;13.77;6.13;;;;;;;-3.10;77.54;96043.47;4990637;28;20100;-75
2021/04/16 05:30:48;;;;;;;10.57;5.97;;;;;;;-3.06;77.92;96049.88;4990191;28;20073;-75
2021/04/16 05:33:13;;;;;;;12.25;5.90;;;;;;;-2.88;78.26;96053.97;4986338;28;20042;-74
2021/04/16 05:35:39;;;;;;;13.88;6.40;;;;;;;-2.86;77.50;96044.28;4990074;28;20042;-75
2021/04/16 05:38:04;;;;;;;11.30;5.65;;;;;;;-2.71;76.93;96047.72;4985945;28;20125;-75
2021/04/16 05:40:30;;;;;;;13.02;6.00;;;;;;;-2.49;76.17;96050.44;4990486;28;20113;-75
2021/04/16 05:42:56;;;;;;;9.95;5.90;;;;;;;-2.39;75.79;96048.41;4988590;28;20045;-74
2021/04/16 05:45:22;;;;;;;10.80;6.32;;;;;;;-2.27;76.58;96054.78;4989305;28;20034;-75
2021/04/16 05:47:49;;;;;;;14.57;7.18;;;;;;;-2.29;76.92;96051.53;4980454;28;20105;-74
2021/04/16 05:50:15;;;;;;;11.32;6.35;;;;;;;-2.22;76.83;96056.81;4989491;28;20045;-75
2021/04/16 05:52:40;;;;;;;11.13;6.05;;;;;;;-2.17;78.42;96053.72;4989850;28;20097;-75
2021/04/16 05:55:07;;;;;;;19.75;7.15;;;;;;;-2.22;78.06;96056.03;4984679;28;20043;-75
2021/04/16 05:57:32;;;;;;;17.13;6.82;;;;;;;-2.06;78.34;96055.84;4990402;28;20061;-75
2021/04/16 05:59:58;;;;;;;12.30;6.75;;;;;;;-2.01;77.84;96056.16;4989894;28;20038;-74
2021/04/16 06:02:32;;;;;;;12.05;7.18;;;;;;;-1.90;77.45;96054.09;4987573;28;20058;-75
2021/04/16 06:04:59;;;;;;;11.00;6.70;;;;;;;-1.88;77.22;96057.28;4988509;28;20122;-74
2021/04/16 06:07:25;;;;;;;11.15;7.07;;;;;;;-1.85;78.17;96054.34;4981488;28;20488;-74
2021/04/16 06:09:53;;;;;;;12.40;6.60;;;;;;;-1.71;76.53;96053.59;4989876;28;20113;-75
2021/04/16 06:12:20;;;;;;;14.30;7.57;;;;;;;-1.66;77.20;96061.56;4989387;28;20126;-75
2021/04/16 06:14:47;;;;;;;16.00;7.22;;;;;;;-1.41;77.86;96056.13;4989684;28;20451;-74
2021/04/16 06:17:14;;;;;;;12.15;7.47;;;;;;;-1.45;77.86;96057.44;4984144;28;20088;-75
2021/04/16 06:19:41;;;;;;;11.32;7.45;;;;;;;-1.33;76.95;96045.69;4991175;28;20092;-75
2021/04/16 06:22:07;;;;;;;13.27;8.50;;;;;;;-1.36;78.47;96046.06;4993050;28;20073;-74
2021/04/16 06:24:33;;;;;;;19.52;8.25;;;;;;;-1.31;77.25;96045.50;4986951;28;20034;-74
2021/04/16 06:26:59;;;;;;;15.13;9.30;;;;;;;-1.14;77.88;96043.53;4993076;28;20041;-74
2021/04/16 06:29:24;;;;;;;13.43;8.48;;;;;;;-1.14;76.90;96033.97;4992861;28;20042;-73
2021/04/16 06:31:51;;;;;;;13.90;9.35;;;;;;;-1.10;76.83;96040.38;4992588;28;20038;-74
2021/04/16 06:34:17;;;;;;;16.73;8.70;;;;;;;-0.97;77.41;96044.91;4993032;28;20042;-73
2021/04/16 06:36:43;;;;;;;14.13;9.23;;;;;;;-0.78;78.20;96042.69;4986246;28;20054;-74
2021/04/16 06:39:08;;;;;;;11.35;7.93;;;;;;;-0.75;76.11;96042.31;4992819;28;20054;-74
2021/04/16 06:41:34;;;;;;;12.50;8.13;;;;;;;-0.75;77.30;96037.16;4992854;28;20034;-73
2021/04/16 06:44:08;;;;;;;12.73;8.30;;;;;;;-0.70;75.78;96037.41;4990255;28;20093;-73
2021/04/16 06:46:39;;;;;;;11.95;8.25;;;;;;;-0.74;75.71;96033.59;5003200;28;20035;-67
2021/04/16 06:49:22;;;;;;;12.20;8.68;;;;;;;-0.70;76.45;96040.00;4987610;28;20054;-67
2021/04/16 06:51:59;;;;;;;11.80;8.40;;;;;;;-0.67;76.58;96044.78;4986854;28;20046;-67
2021/04/16 06:54:28;;;;;;;10.85;7.47;;;;;;;-0.44;75.13;96042.00;4991612;28;20042;-67
2021/04/16 06:56:58;;;;;;;10.88;7.38;;;;;;;-0.28;74.05;96035.75;4990393;28;20109;-67
2021/04/16 06:59:31;;;;;;;13.93;7.75;;;;;;;-0.07;74.13;96034.91;4993017;28;20057;-67
2021/04/16 07:02:10;;;;;;;13.88;7.95;;;;;;;-0.01;72.81;96039.31;4991912;28;20053;-66
2021/04/16 07:04:47;;;;;;;11.60;6.60;;;;;;;0.14;72.11;96035.84;4989665;28;20061;-67
2021/04/16 07:07:48;;;;;;;17.08;7.35;;;;;;;0.21;72.07;96035.88;4987993;28;20532;-67
2021/04/16 07:10:43;;;;;;;12.75;7.13;;;;;;;0.41;71.09;96044.53;4963354;28;20847;-67
2021/04/16 07:13:19;;;;;;;;;;;;;;;0.57;70.40;96045.22;4981345;28;20070;-67
2021/04/16 07:15:45;;;;;;;9.55;6.72;;;;;;;0.74;69.55;96041.28;4987378;28;19929;-67
2021/04/16 07:18:14;;;;;;;13.05;6.65;;;;;;;0.61;69.52;96042.03;4991741;28;20046;-67
2021/04/16 07:20:40;;;;;;;9.82;7.00;;;;;;;0.67;69.77;96041.25;4991568;28;20066;-67
2021/04/16 07:23:06;;;;;;;11.70;6.95;;;;;;;0.44;69.73;96044.16;4987756;28;20038;-67
2021/04/16 07:25:45;;;;;;;12.63;8.02;;;;;;;0.29;70.84;96046.09;4987344;28;20058;-67
2021/04/16 07:28:33;;;;;;;13.52;8.15;;;;;;;0.40;71.03;96044.72;4992222;28;20046;-67
2021/04/16 07:31:18;;;;;;;12.38;7.60;;;;;;;0.33;70.75;96039.50;4981345;28;20539;-67
2021/04/16 07:33:44;;;;;;;11.20;7.40;;;;;;;0.38;71.11;96046.72;4988630;28;20050;-67
2021/04/16 07:36:45;;;;;;;17.27;7.45;;;;;;;0.30;69.75;96042.50;4991851;28;20046;-67
2021/04/16 07:39:13;;;;;;;11.63;7.65;;;;;;;0.39;70.40;96048.31;4930143;29;20075;-66
2021/04/16 07:42:08;;;;;;;10.70;6.93;;;;;;;0.69;68.90;96043.69;4975342;28;20050;-66
2021/04/16 07:44:37;;;;;;;11.53;6.77;;;;;;;0.71;69.28;96031.31;4989026;28;20050;-66
2021/04/16 07:47:14;;;;;;;9.68;6.32;;;;;;;0.55;65.98;96047.19;4988333;28;20308;-66
2021/04/16 07:49:53;;;;;;;11.02;6.35;;;;;;;0.45;65.70;96048.34;4988821;28;20495;-66
2021/04/16 07:52:30;;;;;;;9.18;6.35;;;;;;;0.46;68.02;96049.97;4992211;28;20385;-66
2021/04/16 07:55:20;;;;;;;10.00;6.53;;;;;;;0.76;67.98;96054.88;4983076;28;20049;-66
2021/04/16 07:57:52;;;;;;;12.20;6.57;;;;;;;0.69;67.21;96051.47;4990620;28;20053;-66
2021/04/16 08:00:24;;;;;;;9.02;5.97;;;;;;;0.91;66.82;96056.50;4988052;28;20043;-66
2021/04/16 08:03:01;;;;;;;9.48;6.05;;;;;;;1.00;66.23;96055.34;4991514;28;20101;-67
2021/04/16 08:05:32;;;;;;;8.05;5.65;;;;;;;0.89;64.24;96050.72;4986627;28;20069;-66
2021/04/16 08:08:24;;;;;;;9.43;6.20;;;;;;;0.84;67.66;96051.31;4989648;28;20065;-67
2021/04/16 08:11:11;;;;;;;9.63;5.95;;;;;;;0.92;67.87;96052.91;4986685;28;20788;-67
2021/04/16 08:13:43;;;;;;;7.95;5.28;;;;;;;1.33;64.18;96055.41;4988829;28;20129;-66
2021/04/16 08:16:16;;;;;;;8.45;5.47;;;;;;;1.33;63.84;96049.44;4990518;28;20061;-73
2021/04/16 08:18:45;;;;;;;10.43;5.38;;;;;;;1.35;62.33;96047.41;4988997;28;20092;-73
2021/04/16 08:21:16;;;;;;;8.40;5.00;;;;;;;1.42;61.80;96048.22;4990579;28;20042;-73
2021/04/16 08:23:59;;;;;;;8.48;5.28;;;;;;;1.51;65.08;96052.25;4990056;28;20545;-73
2021/04/16 08:26:31;;;;;;;6.93;4.60;;;;;;;2.11;60.28;96046.22;4987430;28;20050;-72
2021/04/16 08:29:11;;;;;;;8.25;5.50;;;;;;;1.96;62.10;96050.84;4987899;28;20049;-72
2021/04/16 08:31:44;;;;;;;9.32;5.93;;;;;;;1.90;62.75;96047.25;5005747;28;20110;-73
2021/04/16 08:34:19;;;;;;;8.93;5.50;;;;;;;2.25;60.93;96042.59;4983251;28;20559;-72
2021/04/16 08:36:45;;;;;;;9.80;5.30;;;;;;;2.30;62.07;96043.78;4987934;28;20496;-71
2021/04/16 08:39:24;;;;;;;8.75;5.78;;;;;;;2.58;59.24;96046.91;4987848;28;20049;-72
2021/04/16 08:42:07;;;;;;;9.00;6.10;;;;;;;2.46;60.76;96042.53;4986896;28;20042;-70
2021/04/16 08:44:41;;;;;;;9.82;6.05;;;;;;;2.52;59.68;96037.34;4990970;28;20035;-72
2021/04/16 08:47:19;;;;;;;7.90;4.90;;;;;;;2.94;56.33;96035.19;4987388;28;20639;-72
2021/04/16 08:49:45;;;;;;;8.75;5.70;;;;;;;3.12;58.43;96036.28;4988318;28;20038;-74
2021/04/16 08:52:26;;;;;;;7.95;5.70;;;;;;;2.91;55.84;96029.59;4991039;28;20050;-73
2021/04/16 08:54:53;;;;;;;11.90;5.43;;;;;;;2.67;57.06;96029.31;4986550;28;20050;-72
2021/04/16 08:57:19;;;;;;;9.02;5.90;;;;;;;2.75;59.05;96036.06;4988085;28;20170;-73
2021/04/16 09:00:14;;;;;;;9.18;5.45;;;;;;;2.53;56.12;96033.75;4990318;28;20120;-72
2021/04/16 09:02:55;;;;;;;10.23;5.40;;;;;;;2.81;59.21;96030.03;4986894;28;20042;-72
2021/04/16 09:05:26;;;;;;;8.20;5.50;;;;;;;2.87;55.05;96024.00;4987554;28;20042;-71
2021/04/16 09:07:57;;;;;;;9.57;5.25;;;;;;;2.89;56.96;96027.19;4986446;28;20043;-72
2021/04/16 09:10:23;;;;;;;8.65;5.95;;;;;;;2.67;56.83;96028.50;4987618;28;20038;-72
2021/04/16 09:12:53;;;;;;;8.70;5.15;;;;;;;2.74;57.65;96030.06;4990806;28;20041;-72
2021/04/16 09:15:19;;;;;;;9.70;5.10;;;;;;;2.78;57.19;96031.22;4986184;28;20034;-72
2021/04/16 09:17:51;;;;;;;7.78;5.43;;;;;;;2.79;56.86;96026.84;4990051;28;20043;-73
2021/04/16 09:20:33;;;;;;;8.65;5.55;;;;;;;2.78;57.14;96030.44;4989436;28;20419;-75
2021/04/16 09:23:00;;;;;;;7.55;5.32;;;;;;;2.78;56.17;96033.03;4989552;28;20072;-73
2021/04/16 09:25:38;;;;;;;7.00;5.18;;;;;;;2.79;56.64;96032.06;4985797;28;20082;-75
2021/04/16 09:28:22;;;;;;;7.88;5.30;;;;;;;2.81;55.43;96035.22;4987458;28;20050;-72
2021/04/16 09:31:25;;;;;;;6.25;4.47;;;;;;;3.03;54.02;96032.31;4989873;28;20050;-72
2021/04/16 09:34:19;;;;;;;7.43;4.85;;;;;;;2.69;53.98;96023.91;4987329;28;20054;-74
2021/04/16 09:36:52;;;;;;;7.35;4.88;;;;;;;2.81;53.44;96030.03;4980948;28;20046;-73
2021/04/16 09:39:36;;;;;;;8.93;5.43;;;;;;;2.73;52.97;96022.47;4988909;28;20368;-74
2021/04/16 09:42:34;;;;;;;8.65;4.88;;;;;;;2.76;53.43;96027.28;4988820;28;21019;-72
2021/04/16 09:45:00;;;;;;;7.55;5.30;;;;;;;2.60;55.64;96029.31;4986525;28;20567;-72
2021/04/16 09:47:43;;;;;;;7.22;4.38;;;;;;;2.49;52.23;96026.56;4987481;28;20051;-72
2021/04/16 09:50:29;;;;;;;7.88;4.72;;;;;;;2.60;55.35;96024.13;4987125;28;20763;-72
2021/04/16 09:53:14;;;;;;;8.13;4.40;;;;;;;2.74;53.55;96024.06;4992677;28;21704;-73
2021/04/16 09:55:52;;;;;;;7.13;4.95;;;;;;;2.57;51.40;96016.75;4989503;28;20062;-72
2021/04/16 09:58:39;;;;;;;8.00;4.72;;;;;;;2.85;52.65;96020.81;4991461;28;20046;-72
2021/04/16 10:01:09;;;;;;;7.88;4.93;;;;;;;2.94;53.08;96018.78;4995000;28;20050;-72
2021/04/16 10:03:40;;;;;;;8.98;5.50;;;;;;;2.84;55.11;96024.41;4986894;28;20049;-73
2021/04/16 10:06:22;;;;;;;8.82;5.03;;;;;;;2.73;55.65;96022.47;4991621;28;20149;-73
2021/04/16 10:09:03;;;;;;;7.32;4.88;;;;;;;2.93;53.48;96023.19;4989460;28;20051;-73
2021/04/16 10:11:29;;;;;;;8.90;4.90;;;;;;;3.18;52.74;96019.84;4991814;28;20050;-73
2021/04/16 10:14:13;;;;;;;7.75;4.63;;;;;;;3.37;50.51;96009.50;4993595;28;20128;-73
2021/04/16 10:16:39;;;;;;;7.70;4.82;;;;;;;3.56;48.30;96019.00;4987846;28;20050;-73
2021/04/16 10:19:18;;;;;;;8.63;5.05;;;;;;;3.56;49.37;96011.19;4993719;28;20085;-73
2021/04/16 10:21:44;;;;;;;10.80;5.68;;;;;;;3.81;50.31;96003.34;4987893;28;20062;-73
2021/04/16 12:39:06;;;;;;;8.82;4.93;;;;;;;5.99;44.51;95967.00;4988781;28;20042;-67
2021/04/16 12:41:42;;;;;;;6.93;4.80;;;;;;;6.53;42.46;95958.16;4991123;28;20050;-67
2021/04/16 12:44:19;;;;;;;6.72;4.80;;;;;;;6.41;42.08;95956.38;4990767;28;20420;-67
2021/04/16 12:46:45;;;;;;;7.75;5.57;;;;;;;6.03;42.03;95949.03;4986119;28;20038;-67
2021/04/16 12:49:10;;;;;;;7.05;4.70;;;;;;;6.80;42.53;95949.78;4990716;28;20043;-67
2021/04/16 12:51:36;;;;;;;6.55;5.03;;;;;;;6.61;42.00;95949.94;4989780;28;20503;-67
2021/04/16 12:54:01;;;;;;;6.53;4.90;;;;;;;6.60;41.76;95935.28;4988912;28;20057;-70
2021/04/16 12:56:34;;;;;;;6.80;5.40;;;;;;;6.39;40.75;95942.75;4986589;28;20049;-69
2021/04/16 12:59:14;;;;;;;7.45;5.75;;;;;;;5.47;42.76;95945.97;4989793;28;20049;-69
2021/04/16 13:01:46;;;;;;;6.72;5.45;;;;;;;5.14;44.42;95952.47;4987323;28;20042;-69
2021/04/16 13:04:14;;;;;;;8.00;5.45;;;;;;;5.36;46.06;95945.72;4990983;28;20070;-69
2021/04/16 13:06:44;;;;;;;7.93;5.55;;;;;;;5.60;43.43;95945.72;4989838;28;20081;-69
2021/04/16 13:09:13;;;;;;;7.13;5.15;;;;;;;5.67;44.61;95941.19;4986732;28;20051;-69
2021/04/16 13:11:38;;;;;;;7.03;5.38;;;;;;;6.37;41.69;95939.53;4990801;28;20058;-69
2021/04/16 13:14:05;;;;;;;12.10;5.15;;;;;;;6.53;42.92;95937.25;4985504;28;20058;-69
2021/04/16 13:16:30;;;;;;;7.88;5.80;;;;;;;5.70;44.37;95943.38;4989964;28;20054;-69
2021/04/16 13:19:00;;;;;;;7.10;5.43;;;;;;;5.93;43.98;95933.91;4989086;28;20514;-69
2021/04/16 13:21:32;;;;;;;9.05;5.95;;;;;;;5.93;43.38;95939.13;4990913;28;20047;-69
2021/04/16 13:23:58;;;;;;;7.53;5.63;;;;;;;5.84;43.57;95945.75;4990447;28;20050;-69
2021/04/16 13:26:25;;;;;;;8.23;5.30;;;;;;;5.64;44.47;95941.66;4988566;28;20050;-68
2021/04/16 13:28:51;;;;;;;7.13;5.30;;;;;;;5.86;43.67;95933.25;4992158;28;20042;-69
2021/04/16 13:31:17;;;;;;;8.27;5.63;;;;;;;5.87;45.33;95927.00;4992390;28;20503;-69
2021/04/16 13:33:44;;;;;;;7.90;5.63;;;;;;;5.32;44.53;95934.13;4994702;28;20100;-70
2021/04/16 13:36:15;;;;;;;8.52;6.22;;;;;;;5.09;44.40;95934.13;4993679;28;20050;-69
2021/04/16 13:38:40;;;;;;;6.70;5.30;;;;;;;5.11;44.04;95927.63;4990303;28;20050;-70
2021/04/16 13:41:07;;;;;;;8.93;5.65;;;;;;;5.26;43.67;95929.84;4993489;28;20061;-69
2021/04/16 13:43:33;;;;;;;6.47;5.32;;;;;;;5.98;42.62;95928.84;4994204;28;20089;-69
2021/04/16 13:46:06;;;;;;;7.00;5.40;;;;;;;6.41;44.34;95922.38;4985707;28;20038;-70
2021/04/16 13:48:32;;;;;;;8.05;4.90;;;;;;;6.49;42.11;95920.41;4992190;28;20046;-69
2021/04/16 13:50:57;;;;;;;7.00;5.22;;;;;;;7.79;39.54;95912.59;4993050;28;20125;-70
2021/04/16 13:53:23;;;;;;;8.18;5.60;;;;;;;8.11;40.86;95919.81;4990928;28;20082;-69
2021/04/16 13:55:49;;;;;;;6.55;5.40;;;;;;;8.11;38.82;95914.56;4991849;28;20081;-69
2021/04/16 13:58:15;;;;;;;7.75;5.50;;;;;;;7.16;40.54;95913.75;4989486;28;20074;-69
2021/04/16 14:00:42;;;;;;;11.52;4.88;;;;;;;7.35;40.09;95912.47;4993318;28;20049;-69
2021/04/16 14:03:26;;;;;;;8.23;5.20;;;;;;;7.85;40.17;95904.81;4996024;28;20053;-69